Ana Sayfa
METAR-TAF:

METAR-TAF

Havaalanları :

Kunming, Çin

Enlem: 25-01N, Boylam: 102-41E, yükseklik: 1892 m

Güncel hava durumu gözlemi

Rapor saat 22:00 UTC de 53 dakika önce yapıldı.
Rüzgar güneybatıdan 6 kt
Sıcaklık 13°C
Nem 100%
Basınç 1024 hPa
Görüş mesafesi 10 km veya daha fazla
2000 ft yükseklikte parçalı bulutlu
4000 ft yükseklikte parçalı bulutlu

METAR: ZPPP 202200Z 23003MPS 9999 SCT020 SCT040 13/13 Q1024 NOSIG

Saat: 06:53 (22:53 UTC)

Tahmin

Rapor saat 13:04 UTC de 9 saat ve 49 dakika önce yapıldı.
Ayın 20'si saat 18 UTC'den ayın 21'si saat 18 UTC'ye kadar geçerli Tahmin
Rüzgar güneybatıdan 8 kt
Görüş mesafesi 10 km veya daha fazla
2000 ft yükseklikte parçalı bulutlu

TAF: ZPPP 201304Z 2018/2118 22004MPS 9999 SCT020 TX23/2108Z TN13/2023Z

4.000'den fazla havaalanı için hava durumu gözlemleri ve tahminleri (METAR ve TAF raporları).

Kullanılabilir istasyonlar harita üzerinde sarı ve kırmızı noktalarla gösterilir.

İstasyonun adını görmek için fareyi noktanın üzerinde gezdirin.

Sonrasında hava gözlem ve tahminlerini görmek için tıklayın.

Haritayı değiştirmek için: yaklaştırmak için siyah artı işaretli yeşil düğmeye ve uzaklaştırmak için de eksi işaretli düğmeye hızla tıklayın; bitişik haritalar için yeşil okları kullanın.


METAR-TAF: